Terminal Aerodrome Forecast
Issued by NWS Wakefield, VA

Home | Current Version | Previous Version | Text Only | Print | Product List | Glossary On
Versions: 1 2 3 4 5 6 7 8 9 10 11 12 13
000
FTUS41 KAKQ 270532
TAFECG
TAF
KECG 270532Z 2706/2806 19007KT P6SM BKN250
     FM271200 18006KT P6SM SCT025
     FM271500 19012KT P6SM SCT040
     FM272300 18006KT P6SM SCT040=

USA.gov is the U.S. government's official web portal to all federal, state and local government web resources and services.